PWSweather.com
Personal Weather Stations
Station Observations
TAIGUM
Cashmere, BrisbaneAU 4500

CashmereBrisbaneAU 4500

Lat: -27.2949692, Lon: 152.9343974

Elevation: 125

Station Type: Vantage Pro 2

http://www.brisbaneliveweather.com

Latest ConditionsUpdated 9:15:01 PM GMT+10:10 Thursday, Jul 31, 2014
Currently Today's Max Today's Min Today's Average
Temperature 61.0°F16.1°C 80.8°F27.1°C 39.6°F4.2°C 59.5°F15.3°C
Dew Point 52.9°F11.6°C 59.4°F15.2°C 38.1°F3.4°C 46.7°F8.2°C
Winds Calm Calm 6.0 mph WNW9.7 kmh WNW - 2.0 mph 3.2 kmh
Wind Gusts 2.0 mph3.2 kmh 13.0 mph20.9 kmh - -
Humidity 75% 97% 25% 69%
Pressure 30.04 in1017.3 mb 30.17 in1021.7 mb 29.98 in1015.2 mb -
Hour Temp Dew Point Humidity Winds Wind Gusts Pressure Precip Precip Rate Daily Precip Total
09:15 PM 61.0°F16.1°C 52.9°F11.6°C 75% Calm Calm 2.0 mph3.2 kmh 30.04 in1017.3 mb 0.00 in0.0 mm 0.00 in/hr0.0 mm/hr 0.00 in0.0 mm
09:00 PM 61.3°F16.3°C 52.9°F11.6°C 74% Calm Calm -- 30.04 in1017.3 mb 0.00 in0.0 mm 0.00 in/hr0.0 mm/hr 0.00 in0.0 mm
08:45 PM 61.5°F16.4°C 53.1°F11.7°C 74% Calm Calm 2.0 mph3.2 kmh 30.04 in1017.3 mb 0.00 in0.0 mm 0.00 in/hr0.0 mm/hr 0.00 in0.0 mm
08:30 PM 61.9°F16.6°C 52.7°F11.5°C 72% Calm Calm 1.0 mph1.6 kmh 30.04 in1017.3 mb 0.00 in0.0 mm 0.00 in/hr0.0 mm/hr 0.00 in0.0 mm
08:15 PM 63.7°F17.6°C 53.4°F11.9°C 69% Calm Calm -- 30.04 in1017.3 mb 0.00 in0.0 mm 0.00 in/hr0.0 mm/hr 0.00 in0.0 mm
08:00 PM 64.9°F18.3°C 53.6°F12.0°C 67% 1.0 mph W1.6 kmh W -- 30.03 in1016.9 mb 0.00 in0.0 mm 0.00 in/hr0.0 mm/hr 0.00 in0.0 mm
07:45 PM 65.1°F18.4°C 53.6°F12.0°C 66% 1.0 mph WNW1.6 kmh WNW -- 30.03 in1016.9 mb 0.00 in0.0 mm 0.00 in/hr0.0 mm/hr 0.00 in0.0 mm
07:30 PM 65.7°F18.7°C 53.2°F11.8°C 64% 3.0 mph NW4.8 kmh NW 8.0 mph12.9 kmh 30.02 in1016.6 mb 0.00 in0.0 mm 0.00 in/hr0.0 mm/hr 0.00 in0.0 mm
07:15 PM 66.0°F18.9°C 53.1°F11.7°C 63% 3.0 mph NNW4.8 kmh NNW 5.0 mph8.0 kmh 30.01 in1016.3 mb 0.00 in0.0 mm 0.00 in/hr0.0 mm/hr 0.00 in0.0 mm
07:00 PM 66.6°F19.2°C 52.3°F11.3°C 60% 4.0 mph N6.4 kmh N 7.0 mph11.3 kmh 30.01 in1016.3 mb 0.00 in0.0 mm 0.00 in/hr0.0 mm/hr 0.00 in0.0 mm
06:45 PM 66.7°F19.3°C 52.5°F11.4°C 60% 4.0 mph N6.4 kmh N 11.0 mph17.7 kmh 30.00 in1015.9 mb 0.00 in0.0 mm 0.00 in/hr0.0 mm/hr 0.00 in0.0 mm
06:30 PM 66.9°F19.4°C 54.3°F12.4°C 64% 4.0 mph N6.4 kmh N 9.0 mph14.5 kmh 30.00 in1015.9 mb 0.00 in0.0 mm 0.00 in/hr0.0 mm/hr 0.00 in0.0 mm
06:15 PM 67.5°F19.7°C 55.4°F13.0°C 65% 5.0 mph N8.0 kmh N 13.0 mph20.9 kmh 29.99 in1015.6 mb 0.00 in0.0 mm 0.00 in/hr0.0 mm/hr 0.00 in0.0 mm
06:00 PM 68.2°F20.1°C 55.4°F13.0°C 64% 4.0 mph NNE6.4 kmh NNE 7.0 mph11.3 kmh 29.99 in1015.6 mb 0.00 in0.0 mm 0.00 in/hr0.0 mm/hr 0.00 in0.0 mm
05:45 PM 68.9°F20.5°C 55.8°F13.2°C 63% 2.0 mph N3.2 kmh N 6.0 mph9.7 kmh 29.99 in1015.6 mb 0.00 in0.0 mm 0.00 in/hr0.0 mm/hr 0.00 in0.0 mm
05:30 PM 69.8°F21.0°C 56.1°F13.4°C 62% 4.0 mph N6.4 kmh N 6.0 mph9.7 kmh 29.99 in1015.6 mb 0.00 in0.0 mm 0.00 in/hr0.0 mm/hr 0.00 in0.0 mm
05:15 PM 70.9°F21.6°C 56.3°F13.5°C 60% 5.0 mph N8.0 kmh N 6.0 mph9.7 kmh 29.98 in1015.2 mb 0.00 in0.0 mm 0.00 in/hr0.0 mm/hr 0.00 in0.0 mm
04:45 PM 73.8°F23.2°C 57.6°F14.2°C 57% 5.0 mph N8.0 kmh N 11.0 mph17.7 kmh 29.98 in1015.2 mb 0.00 in0.0 mm 0.00 in/hr0.0 mm/hr 0.00 in0.0 mm
04:30 PM 75.0°F23.9°C 59.4°F15.2°C 58% 6.0 mph NE9.7 kmh NE 8.0 mph12.9 kmh 29.98 in1015.2 mb 0.00 in0.0 mm 0.00 in/hr0.0 mm/hr 0.00 in0.0 mm
04:15 PM 75.9°F24.4°C 59.2°F15.1°C 56% 5.0 mph NE8.0 kmh NE 8.0 mph12.9 kmh 29.98 in1015.2 mb 0.00 in0.0 mm 0.00 in/hr0.0 mm/hr 0.00 in0.0 mm
04:00 PM 77.2°F25.1°C 58.1°F14.5°C 52% 6.0 mph NE9.7 kmh NE 8.0 mph12.9 kmh 29.98 in1015.2 mb 0.00 in0.0 mm 0.00 in/hr0.0 mm/hr 0.00 in0.0 mm
03:45 PM 78.4°F25.8°C 57.0°F13.9°C 48% 5.0 mph NNE8.0 kmh NNE 12.0 mph19.3 kmh 29.98 in1015.2 mb 0.00 in0.0 mm 0.00 in/hr0.0 mm/hr 0.00 in0.0 mm
03:30 PM 78.8°F26.0°C 56.8°F13.8°C 47% 6.0 mph NNE9.7 kmh NNE 8.0 mph12.9 kmh 29.98 in1015.2 mb 0.00 in0.0 mm 0.00 in/hr0.0 mm/hr 0.00 in0.0 mm
03:15 PM 80.6°F27.0°C 55.4°F13.0°C 42% 4.0 mph NNE6.4 kmh NNE 4.0 mph6.4 kmh 29.98 in1015.2 mb 0.00 in0.0 mm 0.00 in/hr0.0 mm/hr 0.00 in0.0 mm
03:00 PM 80.8°F27.1°C 54.9°F12.7°C 41% 5.0 mph N8.0 kmh N 9.0 mph14.5 kmh 29.98 in1015.2 mb 0.00 in0.0 mm 0.00 in/hr0.0 mm/hr 0.00 in0.0 mm
02:45 PM 80.2°F26.8°C 43.2°F6.2°C 27% 3.0 mph WNW4.8 kmh WNW 6.0 mph9.7 kmh 29.99 in1015.6 mb 0.00 in0.0 mm 0.00 in/hr0.0 mm/hr 0.00 in0.0 mm
02:30 PM 79.5°F26.4°C 42.6°F5.9°C 27% 5.0 mph NW8.0 kmh NW 6.0 mph9.7 kmh 29.99 in1015.6 mb 0.00 in0.0 mm 0.00 in/hr0.0 mm/hr 0.00 in0.0 mm
02:15 PM 79.7°F26.5°C 40.8°F4.9°C 25% 5.0 mph NW8.0 kmh NW 7.0 mph11.3 kmh 30.00 in1015.9 mb 0.00 in0.0 mm 0.00 in/hr0.0 mm/hr 0.00 in0.0 mm
02:00 PM 79.5°F26.4°C 41.7°F5.4°C 26% 4.0 mph NW6.4 kmh NW 11.0 mph17.7 kmh 30.00 in1015.9 mb 0.00 in0.0 mm 0.00 in/hr0.0 mm/hr 0.00 in0.0 mm
01:45 PM 79.9°F26.6°C 41.9°F5.5°C 26% 4.0 mph NW6.4 kmh NW 8.0 mph12.9 kmh 30.01 in1016.3 mb 0.00 in0.0 mm 0.00 in/hr0.0 mm/hr 0.00 in0.0 mm
01:30 PM 79.9°F26.6°C 41.0°F5.0°C 25% 4.0 mph NW6.4 kmh NW 6.0 mph9.7 kmh 30.02 in1016.6 mb 0.00 in0.0 mm 0.00 in/hr0.0 mm/hr 0.00 in0.0 mm
01:00 PM 78.6°F25.9°C 41.0°F5.0°C 26% 6.0 mph NW9.7 kmh NW 5.0 mph8.0 kmh 30.04 in1017.3 mb 0.00 in0.0 mm 0.00 in/hr0.0 mm/hr 0.00 in0.0 mm
12:45 PM 79.3°F26.3°C 44.4°F6.9°C 29% 4.0 mph WNW6.4 kmh WNW 2.0 mph3.2 kmh 30.05 in1017.6 mb 0.00 in0.0 mm 0.00 in/hr0.0 mm/hr 0.00 in0.0 mm
12:30 PM 78.4°F25.8°C 43.5°F6.4°C 29% 5.0 mph WNW8.0 kmh WNW 9.0 mph14.5 kmh 30.06 in1017.9 mb 0.00 in0.0 mm 0.00 in/hr0.0 mm/hr 0.00 in0.0 mm
12:15 PM 78.1°F25.6°C 44.1°F6.7°C 30% 6.0 mph NW9.7 kmh NW 12.0 mph19.3 kmh 30.07 in1018.3 mb 0.00 in0.0 mm 0.00 in/hr0.0 mm/hr 0.00 in0.0 mm
12:00 PM 77.4°F25.2°C 46.8°F8.2°C 34% 6.0 mph NW9.7 kmh NW 11.0 mph17.7 kmh 30.08 in1018.6 mb 0.00 in0.0 mm 0.00 in/hr0.0 mm/hr 0.00 in0.0 mm
11:45 AM 76.1°F24.5°C 45.7°F7.6°C 34% 6.0 mph WNW9.7 kmh WNW 12.0 mph19.3 kmh 30.09 in1019.0 mb 0.00 in0.0 mm 0.00 in/hr0.0 mm/hr 0.00 in0.0 mm
11:30 AM 75.6°F24.2°C 47.5°F8.6°C 37% 6.0 mph WNW9.7 kmh WNW 13.0 mph20.9 kmh 30.10 in1019.3 mb 0.00 in0.0 mm 0.00 in/hr0.0 mm/hr 0.00 in0.0 mm
11:15 AM 74.8°F23.8°C 46.9°F8.3°C 37% 6.0 mph NW9.7 kmh NW 9.0 mph14.5 kmh 30.11 in1019.6 mb 0.00 in0.0 mm 0.00 in/hr0.0 mm/hr 0.00 in0.0 mm
11:00 AM 74.5°F23.6°C 46.6°F8.1°C 37% 6.0 mph WNW9.7 kmh WNW 12.0 mph19.3 kmh 30.12 in1020.0 mb 0.00 in0.0 mm 0.00 in/hr0.0 mm/hr 0.00 in0.0 mm
10:45 AM 73.6°F23.1°C 46.4°F8.0°C 38% 6.0 mph NW9.7 kmh NW 12.0 mph19.3 kmh 30.13 in1020.3 mb 0.00 in0.0 mm 0.00 in/hr0.0 mm/hr 0.00 in0.0 mm
10:30 AM 73.0°F22.8°C 48.0°F8.9°C 41% 2.0 mph W3.2 kmh W 11.0 mph17.7 kmh 30.14 in1020.7 mb 0.00 in0.0 mm 0.00 in/hr0.0 mm/hr 0.00 in0.0 mm
10:15 AM 71.4°F21.9°C 49.1°F9.5°C 45% Calm Calm 4.0 mph6.4 kmh 30.15 in1021.0 mb 0.00 in0.0 mm 0.00 in/hr0.0 mm/hr 0.00 in0.0 mm
10:00 AM 69.1°F20.6°C 48.6°F9.2°C 48% Calm Calm 1.0 mph1.6 kmh 30.16 in1021.3 mb 0.00 in0.0 mm 0.00 in/hr0.0 mm/hr 0.00 in0.0 mm
09:45 AM 67.3°F19.6°C 49.5°F9.7°C 53% 1.0 mph NNE1.6 kmh NNE 1.0 mph1.6 kmh 30.16 in1021.3 mb 0.00 in0.0 mm 0.00 in/hr0.0 mm/hr 0.00 in0.0 mm
09:30 AM 64.6°F18.1°C 49.5°F9.7°C 58% Calm Calm 1.0 mph1.6 kmh 30.17 in1021.7 mb 0.00 in0.0 mm 0.00 in/hr0.0 mm/hr 0.00 in0.0 mm
09:15 AM 61.5°F16.4°C 50.2°F10.1°C 66% Calm Calm 1.0 mph1.6 kmh 30.17 in1021.7 mb 0.00 in0.0 mm 0.00 in/hr0.0 mm/hr 0.00 in0.0 mm
09:00 AM 57.6°F14.2°C 48.9°F9.4°C 73% Calm Calm -- 30.17 in1021.7 mb 0.00 in0.0 mm 0.00 in/hr0.0 mm/hr 0.00 in0.0 mm
08:45 AM 53.8°F12.1°C 50.0°F10.0°C 87% Calm Calm -- 30.17 in1021.7 mb 0.00 in0.0 mm 0.00 in/hr0.0 mm/hr 0.00 in0.0 mm
08:30 AM 50.5°F10.3°C 49.3°F9.6°C 95% Calm Calm -- 30.17 in1021.7 mb 0.00 in0.0 mm 0.00 in/hr0.0 mm/hr 0.00 in0.0 mm
08:15 AM 48.0°F8.9°C 47.1°F8.4°C 97% Calm Calm -- 30.16 in1021.3 mb 0.00 in0.0 mm 0.00 in/hr0.0 mm/hr 0.00 in0.0 mm
08:00 AM 45.1°F7.3°C 44.1°F6.7°C 96% Calm Calm -- 30.16 in1021.3 mb 0.00 in0.0 mm 0.00 in/hr0.0 mm/hr 0.00 in0.0 mm
07:45 AM 42.6°F5.9°C 41.7°F5.4°C 96% Calm Calm -- 30.16 in1021.3 mb 0.00 in0.0 mm 0.00 in/hr0.0 mm/hr 0.00 in0.0 mm
07:30 AM 41.4°F5.2°C 40.3°F4.6°C 96% Calm Calm -- 30.15 in1021.0 mb 0.00 in0.0 mm 0.00 in/hr0.0 mm/hr 0.00 in0.0 mm
07:15 AM 40.3°F4.6°C 39.0°F3.9°C 95% Calm Calm -- 30.14 in1020.7 mb 0.00 in0.0 mm 0.00 in/hr0.0 mm/hr 0.00 in0.0 mm
07:00 AM 39.7°F4.3°C 38.5°F3.6°C 95% Calm Calm -- 30.14 in1020.7 mb 0.00 in0.0 mm 0.00 in/hr0.0 mm/hr 0.00 in0.0 mm
06:45 AM 39.6°F4.2°C 38.3°F3.5°C 95% Calm Calm -- 30.14 in1020.7 mb 0.00 in0.0 mm 0.00 in/hr0.0 mm/hr 0.00 in0.0 mm
06:30 AM 39.6°F4.2°C 38.1°F3.4°C 95% Calm Calm -- 30.14 in1020.7 mb 0.00 in0.0 mm 0.00 in/hr0.0 mm/hr 0.00 in0.0 mm
06:15 AM 39.7°F4.3°C 38.5°F3.6°C 95% Calm Calm -- 30.13 in1020.3 mb 0.00 in0.0 mm 0.00 in/hr0.0 mm/hr 0.00 in0.0 mm
06:00 AM 39.9°F4.4°C 38.7°F3.7°C 95% Calm Calm -- 30.13 in1020.3 mb 0.00 in0.0 mm 0.00 in/hr0.0 mm/hr 0.00 in0.0 mm
05:45 AM 40.3°F4.6°C 39.0°F3.9°C 95% Calm Calm 1.0 mph1.6 kmh 30.13 in1020.3 mb 0.00 in0.0 mm 0.00 in/hr0.0 mm/hr 0.00 in0.0 mm
05:30 AM 40.5°F4.7°C 39.0°F3.9°C 95% Calm Calm -- 30.13 in1020.3 mb 0.00 in0.0 mm 0.00 in/hr0.0 mm/hr 0.00 in0.0 mm
05:15 AM 40.6°F4.8°C 39.4°F4.1°C 95% Calm Calm 1.0 mph1.6 kmh 30.13 in1020.3 mb 0.00 in0.0 mm 0.00 in/hr0.0 mm/hr 0.00 in0.0 mm
05:00 AM 40.8°F4.9°C 39.6°F4.2°C 95% Calm Calm -- 30.13 in1020.3 mb 0.00 in0.0 mm 0.00 in/hr0.0 mm/hr 0.00 in0.0 mm
04:45 AM 41.0°F5.0°C 39.7°F4.3°C 95% Calm Calm -- 30.12 in1020.0 mb 0.00 in0.0 mm 0.00 in/hr0.0 mm/hr 0.00 in0.0 mm
04:30 AM 41.4°F5.2°C 39.9°F4.4°C 95% Calm Calm -- 30.12 in1020.0 mb 0.00 in0.0 mm 0.00 in/hr0.0 mm/hr 0.00 in0.0 mm
04:15 AM 41.5°F5.3°C 39.9°F4.4°C 94% Calm Calm -- 30.12 in1020.0 mb 0.00 in0.0 mm 0.00 in/hr0.0 mm/hr 0.00 in0.0 mm
04:00 AM 42.1°F5.6°C 40.6°F4.8°C 95% Calm Calm -- 30.12 in1020.0 mb 0.00 in0.0 mm 0.00 in/hr0.0 mm/hr 0.00 in0.0 mm
03:45 AM 42.3°F5.7°C 40.6°F4.8°C 94% Calm Calm -- 30.12 in1020.0 mb 0.00 in0.0 mm 0.00 in/hr0.0 mm/hr 0.00 in0.0 mm
03:30 AM 42.4°F5.8°C 40.8°F4.9°C 94% Calm Calm -- 30.11 in1019.6 mb 0.00 in0.0 mm 0.00 in/hr0.0 mm/hr 0.00 in0.0 mm
03:15 AM 42.8°F6.0°C 41.2°F5.1°C 94% Calm Calm 2.0 mph3.2 kmh 30.11 in1019.6 mb 0.00 in0.0 mm 0.00 in/hr0.0 mm/hr 0.00 in0.0 mm
03:00 AM 43.0°F6.1°C 41.4°F5.2°C 94% 1.0 mph E1.6 kmh E 5.0 mph8.0 kmh 30.11 in1019.6 mb 0.00 in0.0 mm 0.00 in/hr0.0 mm/hr 0.00 in0.0 mm
02:45 AM 43.2°F6.2°C 41.5°F5.3°C 94% Calm Calm 1.0 mph1.6 kmh 30.11 in1019.6 mb 0.00 in0.0 mm 0.00 in/hr0.0 mm/hr 0.00 in0.0 mm
02:30 AM 43.5°F6.4°C 41.9°F5.5°C 94% Calm Calm -- 30.11 in1019.6 mb 0.00 in0.0 mm 0.00 in/hr0.0 mm/hr 0.00 in0.0 mm
02:15 AM 43.7°F6.5°C 42.1°F5.6°C 94% Calm Calm -- 30.11 in1019.6 mb 0.00 in0.0 mm 0.00 in/hr0.0 mm/hr 0.00 in0.0 mm
02:00 AM 44.1°F6.7°C 42.4°F5.8°C 94% Calm Calm -- 30.11 in1019.6 mb 0.00 in0.0 mm 0.00 in/hr0.0 mm/hr 0.00 in0.0 mm
01:45 AM 44.6°F7.0°C 43.0°F6.1°C 94% Calm Calm 1.0 mph1.6 kmh 30.11 in1019.6 mb 0.00 in0.0 mm 0.00 in/hr0.0 mm/hr 0.00 in0.0 mm
01:30 AM 44.4°F6.9°C 42.6°F5.9°C 93% Calm Calm 1.0 mph1.6 kmh 30.12 in1020.0 mb 0.00 in0.0 mm 0.00 in/hr0.0 mm/hr 0.00 in0.0 mm
01:15 AM 44.8°F7.1°C 42.8°F6.0°C 93% Calm Calm 1.0 mph1.6 kmh 30.12 in1020.0 mb 0.00 in0.0 mm 0.00 in/hr0.0 mm/hr 0.00 in0.0 mm
01:00 AM 44.8°F7.1°C 43.0°F6.1°C 93% Calm Calm -- 30.12 in1020.0 mb 0.00 in0.0 mm 0.00 in/hr0.0 mm/hr 0.00 in0.0 mm
12:45 AM 45.1°F7.3°C 43.3°F6.3°C 93% Calm Calm -- 30.12 in1020.0 mb 0.00 in0.0 mm 0.00 in/hr0.0 mm/hr 0.00 in0.0 mm
12:30 AM 45.7°F7.6°C 43.7°F6.5°C 93% Calm Calm -- 30.13 in1020.3 mb 0.00 in0.0 mm 0.00 in/hr0.0 mm/hr 0.00 in0.0 mm
12:15 AM 46.0°F7.8°C 43.9°F6.6°C 92% Calm Calm -- 30.13 in1020.3 mb 0.00 in0.0 mm 0.00 in/hr0.0 mm/hr 0.00 in0.0 mm
12:00 AM 46.4°F8.0°C 44.2°F6.8°C 92% Calm Calm -- 30.13 in1020.3 mb 0.00 in0.0 mm 0.00 in/hr0.0 mm/hr 0.00 in0.0 mm